sensor_id;sensor_type;location;lat;lon;timestamp;temperature;humidity
9828;DHT22;4953;48.952;9.442;2022-12-17T05:00:14;-3.70;99.90
9828;DHT22;4953;48.952;9.442;2022-12-17T05:03:03;-3.60;99.90
9828;DHT22;4953;48.952;9.442;2022-12-17T05:05:47;-3.60;99.90
9828;DHT22;4953;48.952;9.442;2022-12-17T05:08:32;-3.60;99.90
9828;DHT22;4953;48.952;9.442;2022-12-17T05:11:16;-3.60;99.90
9828;DHT22;4953;48.952;9.442;2022-12-17T05:14:00;-3.60;99.90
9828;DHT22;4953;48.952;9.442;2022-12-17T05:16:51;-3.60;99.90
9828;DHT22;4953;48.952;9.442;2022-12-17T05:19:35;-3.60;99.90
9828;DHT22;4953;48.952;9.442;2022-12-17T05:22:19;-3.50;99.90
9828;DHT22;4953;48.952;9.442;2022-12-17T05:25:04;-3.50;99.90
9828;DHT22;4953;48.952;9.442;2022-12-17T05:27:49;-3.50;99.90
9828;DHT22;4953;48.952;9.442;2022-12-17T05:30:33;-3.50;99.90
9828;DHT22;4953;48.952;9.442;2022-12-17T05:33:18;-3.50;99.90
9828;DHT22;4953;48.952;9.442;2022-12-17T05:36:04;-3.50;99.90
9828;DHT22;4953;48.952;9.442;2022-12-17T05:38:49;-3.40;99.90
9828;DHT22;4953;48.952;9.442;2022-12-17T05:41:33;-3.40;99.90
9828;DHT22;4953;48.952;9.442;2022-12-17T05:44:18;-3.40;99.90
9828;DHT22;4953;48.952;9.442;2022-12-17T05:47:03;-3.40;99.90
9828;DHT22;4953;48.952;9.442;2022-12-17T05:49:49;-3.50;99.90
9828;DHT22;4953;48.952;9.442;2022-12-17T05:52:33;-3.50;99.90
9828;DHT22;4953;48.952;9.442;2022-12-17T05:55:17;-3.50;99.90
9828;DHT22;4953;48.952;9.442;2022-12-17T05:58:02;-3.40;99.90
9828;DHT22;4953;48.952;9.442;2022-12-17T06:00:46;-3.50;99.90
9828;DHT22;4953;48.952;9.442;2022-12-17T06:03:30;-3.60;99.90
9828;DHT22;4953;48.952;9.442;2022-12-17T06:06:16;-3.70;99.90
9828;DHT22;4953;48.952;9.442;2022-12-17T06:09:00;-3.70;99.90
9828;DHT22;4953;48.952;9.442;2022-12-17T06:11:44;-3.70;99.90
9828;DHT22;4953;48.952;9.442;2022-12-17T06:14:28;-3.60;99.90
9828;DHT22;4953;48.952;9.442;2022-12-17T06:17:12;-3.70;99.90
9828;DHT22;4953;48.952;9.442;2022-12-17T06:19:56;-3.70;99.90
9828;DHT22;4953;48.952;9.442;2022-12-17T06:22:42;-3.70;99.90
9828;DHT22;4953;48.952;9.442;2022-12-17T06:25:26;-3.70;99.90
9828;DHT22;4953;48.952;9.442;2022-12-17T06:28:25;-3.70;99.90
9828;DHT22;4953;48.952;9.442;2022-12-17T06:31:11;-3.80;99.90
9828;DHT22;4953;48.952;9.442;2022-12-17T06:33:56;-3.70;99.90
9828;DHT22;4953;48.952;9.442;2022-12-17T06:36:40;-3.70;99.90
9828;DHT22;4953;48.952;9.442;2022-12-17T06:39:25;-3.70;99.90
9828;DHT22;4953;48.952;9.442;2022-12-17T06:42:10;-3.70;99.90
9828;DHT22;4953;48.952;9.442;2022-12-17T06:44:54;-3.70;99.90
9828;DHT22;4953;48.952;9.442;2022-12-17T06:47:38;-3.70;99.90
9828;DHT22;4953;48.952;9.442;2022-12-17T06:50:22;-3.70;99.90
9828;DHT22;4953;48.952;9.442;2022-12-17T06:53:06;-3.70;99.90
9828;DHT22;4953;48.952;9.442;2022-12-17T06:55:52;-3.70;99.90
9828;DHT22;4953;48.952;9.442;2022-12-17T06:58:48;-3.80;99.90
9828;DHT22;4953;48.952;9.442;2022-12-17T07:01:34;-3.80;99.90
9828;DHT22;4953;48.952;9.442;2022-12-17T07:04:22;-3.90;99.90
9828;DHT22;4953;48.952;9.442;2022-12-17T07:07:06;-4.00;99.90
9828;DHT22;4953;48.952;9.442;2022-12-17T07:09:49;-4.10;99.90
9828;DHT22;4953;48.952;9.442;2022-12-17T07:12:35;-4.20;99.90
9828;DHT22;4953;48.952;9.442;2022-12-17T07:15:19;-4.20;99.90
9828;DHT22;4953;48.952;9.442;2022-12-17T07:18:03;-4.20;99.90
9828;DHT22;4953;48.952;9.442;2022-12-17T07:20:51;-4.20;99.90
9828;DHT22;4953;48.952;9.442;2022-12-17T07:23:35;-4.20;99.90
9828;DHT22;4953;48.952;9.442;2022-12-17T07:26:20;-4.20;99.90
9828;DHT22;4953;48.952;9.442;2022-12-17T07:29:05;-4.20;99.90
9828;DHT22;4953;48.952;9.442;2022-12-17T07:31:49;-4.30;99.90
9828;DHT22;4953;48.952;9.442;2022-12-17T07:34:33;-4.30;99.90
9828;DHT22;4953;48.952;9.442;2022-12-17T07:37:18;-4.30;99.90
9828;DHT22;4953;48.952;9.442;2022-12-17T07:40:02;-4.30;99.90
9828;DHT22;4953;48.952;9.442;2022-12-17T07:42:47;-4.20;99.90
9828;DHT22;4953;48.952;9.442;2022-12-17T07:45:32;-4.20;99.90
9828;DHT22;4953;48.952;9.442;2022-12-17T07:48:17;-4.20;99.90
9828;DHT22;4953;48.952;9.442;2022-12-17T07:51:01;-4.10;99.90
9828;DHT22;4953;48.952;9.442;2022-12-17T07:53:45;-4.10;99.90
9828;DHT22;4953;48.952;9.442;2022-12-17T07:56:29;-4.10;99.90
9828;DHT22;4953;48.952;9.442;2022-12-17T07:59:14;-4.10;99.90
9828;DHT22;4953;48.952;9.442;2022-12-17T08:02:01;-4.10;99.90
9828;DHT22;4953;48.952;9.442;2022-12-17T08:04:46;-4.10;99.90
9828;DHT22;4953;48.952;9.442;2022-12-17T08:07:30;-4.10;99.90
9828;DHT22;4953;48.952;9.442;2022-12-17T08:10:15;-4.10;99.90
9828;DHT22;4953;48.952;9.442;2022-12-17T08:13:01;-4.20;99.90
9828;DHT22;4953;48.952;9.442;2022-12-17T08:15:46;-4.20;99.90
9828;DHT22;4953;48.952;9.442;2022-12-17T08:18:32;-4.20;99.90
9828;DHT22;4953;48.952;9.442;2022-12-17T08:21:17;-4.20;99.90
9828;DHT22;4953;48.952;9.442;2022-12-17T08:24:01;-4.20;99.90
9828;DHT22;4953;48.952;9.442;2022-12-17T08:26:45;-4.20;99.90
9828;DHT22;4953;48.952;9.442;2022-12-17T08:29:30;-4.20;99.90
9828;DHT22;4953;48.952;9.442;2022-12-17T08:32:14;-4.20;99.90
9828;DHT22;4953;48.952;9.442;2022-12-17T08:35:00;-4.30;99.90
9828;DHT22;4953;48.952;9.442;2022-12-17T08:37:44;-4.20;99.90
9828;DHT22;4953;48.952;9.442;2022-12-17T08:40:28;-4.20;99.90
9828;DHT22;4953;48.952;9.442;2022-12-17T08:43:13;-4.20;99.90
9828;DHT22;4953;48.952;9.442;2022-12-17T08:45:57;-4.30;99.90
9828;DHT22;4953;48.952;9.442;2022-12-17T08:48:41;-4.30;99.90
9828;DHT22;4953;48.952;9.442;2022-12-17T08:51:27;-4.30;99.90
9828;DHT22;4953;48.952;9.442;2022-12-17T08:54:11;-4.30;99.90
9828;DHT22;4953;48.952;9.442;2022-12-17T08:56:55;-4.30;99.90
9828;DHT22;4953;48.952;9.442;2022-12-17T08:59:40;-4.30;99.90
9828;DHT22;4953;48.952;9.442;2022-12-17T09:02:24;-4.20;99.90
9828;DHT22;4953;48.952;9.442;2022-12-17T09:05:08;-4.30;99.90
9828;DHT22;4953;48.952;9.442;2022-12-17T09:07:58;-4.20;99.90
9828;DHT22;4953;48.952;9.442;2022-12-17T09:10:43;-4.20;99.90
9828;DHT22;4953;48.952;9.442;2022-12-17T09:13:27;-4.20;99.90
9828;DHT22;4953;48.952;9.442;2022-12-17T09:16:11;-4.20;99.90
9828;DHT22;4953;48.952;9.442;2022-12-17T09:18:55;-4.20;99.90
9828;DHT22;4953;48.952;9.442;2022-12-17T09:21:39;-4.30;99.90
9828;DHT22;4953;48.952;9.442;2022-12-17T09:24:25;-4.40;99.90
9828;DHT22;4953;48.952;9.442;2022-12-17T09:27:09;-4.40;99.90
9828;DHT22;4953;48.952;9.442;2022-12-17T09:29:53;-4.40;99.90
9828;DHT22;4953;48.952;9.442;2022-12-17T09:32:37;-4.30;99.90
9828;DHT22;4953;48.952;9.442;2022-12-17T09:35:21;-4.20;99.90
9828;DHT22;4953;48.952;9.442;2022-12-17T09:38:05;-4.10;99.90
9828;DHT22;4953;48.952;9.442;2022-12-17T09:40:51;-4.00;99.90
9828;DHT22;4953;48.952;9.442;2022-12-17T09:43:43;-4.00;99.90
9828;DHT22;4953;48.952;9.442;2022-12-17T09:46:32;-4.10;99.90
9828;DHT22;4953;48.952;9.442;2022-12-17T09:49:22;-4.00;99.90
9828;DHT22;4953;48.952;9.442;2022-12-17T09:52:17;-4.00;99.90
9828;DHT22;4953;48.952;9.442;2022-12-17T09:55:03;-4.00;99.90
9828;DHT22;4953;48.952;9.442;2022-12-17T09:57:53;-4.00;99.90
9828;DHT22;4953;48.952;9.442;2022-12-17T10:00:38;-4.10;99.90
9828;DHT22;4953;48.952;9.442;2022-12-17T10:03:23;-4.10;99.90
9828;DHT22;4953;48.952;9.442;2022-12-17T10:06:10;-4.00;99.90
9828;DHT22;4953;48.952;9.442;2022-12-17T10:08:58;-3.90;99.90
9828;DHT22;4953;48.952;9.442;2022-12-17T10:11:42;-4.00;99.90
9828;DHT22;4953;48.952;9.442;2022-12-17T10:14:28;-4.00;99.90
9828;DHT22;4953;48.952;9.442;2022-12-17T10:17:21;-4.10;99.90
9828;DHT22;4953;48.952;9.442;2022-12-17T10:20:16;-4.10;99.90
9828;DHT22;4953;48.952;9.442;2022-12-17T10:23:01;-4.00;99.90
9828;DHT22;4953;48.952;9.442;2022-12-17T10:25:50;-3.90;99.90
9828;DHT22;4953;48.952;9.442;2022-12-17T10:28:34;-3.80;99.90
9828;DHT22;4953;48.952;9.442;2022-12-17T10:31:21;-3.70;99.90
9828;DHT22;4953;48.952;9.442;2022-12-17T10:34:07;-3.60;99.90
9828;DHT22;4953;48.952;9.442;2022-12-17T10:36:55;-3.50;99.90
9828;DHT22;4953;48.952;9.442;2022-12-17T10:39:40;-3.60;99.90
9828;DHT22;4953;48.952;9.442;2022-12-17T10:42:27;-3.50;99.90
9828;DHT22;4953;48.952;9.442;2022-12-17T10:45:20;-3.50;99.90
9828;DHT22;4953;48.952;9.442;2022-12-17T10:48:18;-3.40;99.90
9828;DHT22;4953;48.952;9.442;2022-12-17T10:51:03;-3.40;99.90
9828;DHT22;4953;48.952;9.442;2022-12-17T10:53:49;-3.40;99.90
9828;DHT22;4953;48.952;9.442;2022-12-17T10:56:40;-3.40;99.90
9828;DHT22;4953;48.952;9.442;2022-12-17T10:59:30;-3.30;99.90
9828;DHT22;4953;48.952;9.442;2022-12-17T11:02:16;-3.20;99.90
9828;DHT22;4953;48.952;9.442;2022-12-17T11:05:12;-3.20;99.90
9828;DHT22;4953;48.952;9.442;2022-12-17T11:07:58;-3.20;99.90
9828;DHT22;4953;48.952;9.442;2022-12-17T11:10:45;-3.30;99.90
9828;DHT22;4953;48.952;9.442;2022-12-17T11:13:32;-3.30;99.90
9828;DHT22;4953;48.952;9.442;2022-12-17T11:16:22;-3.40;99.90
9828;DHT22;4953;48.952;9.442;2022-12-17T11:19:27;-3.50;99.90
9828;DHT22;4953;48.952;9.442;2022-12-17T11:22:24;-3.50;99.90
9828;DHT22;4953;48.952;9.442;2022-12-17T11:25:22;-3.40;99.90
9828;DHT22;4953;48.952;9.442;2022-12-17T11:28:20;-3.40;99.90
9828;DHT22;4953;48.952;9.442;2022-12-17T11:31:21;-3.20;99.90
9828;DHT22;4953;48.952;9.442;2022-12-17T11:34:13;-3.00;99.90
9828;DHT22;4953;48.952;9.442;2022-12-17T11:37:05;-2.80;99.90
9828;DHT22;4953;48.952;9.442;2022-12-17T11:39:58;-2.60;99.90
9828;DHT22;4953;48.952;9.442;2022-12-17T11:42:49;-2.40;99.90
9828;DHT22;4953;48.952;9.442;2022-12-17T11:45:43;-2.30;99.90
9828;DHT22;4953;48.952;9.442;2022-12-17T11:48:35;-2.20;99.90
9828;DHT22;4953;48.952;9.442;2022-12-17T11:51:26;-2.10;99.90
9828;DHT22;4953;48.952;9.442;2022-12-17T11:54:17;-2.00;99.90
9828;DHT22;4953;48.952;9.442;2022-12-17T11:57:11;-2.00;99.90
9828;DHT22;4953;48.952;9.442;2022-12-17T12:00:03;-1.90;99.90
9828;DHT22;4953;48.952;9.442;2022-12-17T12:02:54;-1.70;99.90
9828;DHT22;4953;48.952;9.442;2022-12-17T12:05:44;-1.60;99.90
9828;DHT22;4953;48.952;9.442;2022-12-17T12:08:51;-1.60;99.90
9828;DHT22;4953;48.952;9.442;2022-12-17T12:11:41;-1.60;99.90
9828;DHT22;4953;48.952;9.442;2022-12-17T12:14:33;-1.20;99.90
9828;DHT22;4953;48.952;9.442;2022-12-17T12:17:33;-1.10;99.90
9828;DHT22;4953;48.952;9.442;2022-12-17T12:20:32;-1.10;99.90
9828;DHT22;4953;48.952;9.442;2022-12-17T12:23:27;-1.10;99.90
9828;DHT22;4953;48.952;9.442;2022-12-17T12:26:18;-1.00;99.90
9828;DHT22;4953;48.952;9.442;2022-12-17T12:29:10;-0.90;99.90
9828;DHT22;4953;48.952;9.442;2022-12-17T12:32:02;-1.00;99.90
9828;DHT22;4953;48.952;9.442;2022-12-17T12:34:48;-0.90;99.90
9828;DHT22;4953;48.952;9.442;2022-12-17T12:37:34;-0.70;99.90
9828;DHT22;4953;48.952;9.442;2022-12-17T12:40:23;-0.60;99.90
9828;DHT22;4953;48.952;9.442;2022-12-17T12:43:14;-0.30;99.90
9828;DHT22;4953;48.952;9.442;2022-12-17T12:46:03;-0.40;99.90
9828;DHT22;4953;48.952;9.442;2022-12-17T12:48:56;-0.60;99.90
9828;DHT22;4953;48.952;9.442;2022-12-17T12:51:42;-0.40;99.90
9828;DHT22;4953;48.952;9.442;2022-12-17T12:54:29;-0.30;99.90
9828;DHT22;4953;48.952;9.442;2022-12-17T12:57:25;-0.30;99.90
9828;DHT22;4953;48.952;9.442;2022-12-17T13:00:21;-0.20;99.90
9828;DHT22;4953;48.952;9.442;2022-12-17T13:03:07;0.10;99.90
9828;DHT22;4953;48.952;9.442;2022-12-17T13:05:52;0.20;99.90
9828;DHT22;4953;48.952;9.442;2022-12-17T13:08:21;0.10;99.90
9828;DHT22;4953;48.952;9.442;2022-12-17T13:10:50;0.00;99.90
9828;DHT22;4953;48.952;9.442;2022-12-17T13:13:28;0.00;99.90
9828;DHT22;4953;48.952;9.442;2022-12-17T13:16:00;-0.10;99.90
9828;DHT22;4953;48.952;9.442;2022-12-17T13:18:31;-0.20;99.90
9828;DHT22;4953;48.952;9.442;2022-12-17T13:21:01;-0.10;99.90
9828;DHT22;4953;48.952;9.442;2022-12-17T13:23:31;-0.10;99.90
9828;DHT22;4953;48.952;9.442;2022-12-17T13:26:20;-0.20;99.90
9828;DHT22;4953;48.952;9.442;2022-12-17T13:28:57;-0.20;99.90
9828;DHT22;4953;48.952;9.442;2022-12-17T13:31:26;-0.20;99.90
9828;DHT22;4953;48.952;9.442;2022-12-17T13:34:00;-0.20;99.90
9828;DHT22;4953;48.952;9.442;2022-12-17T13:36:39;-0.30;99.90
9828;DHT22;4953;48.952;9.442;2022-12-17T13:39:19;-0.30;99.90
9828;DHT22;4953;48.952;9.442;2022-12-17T13:41:52;-0.20;99.90
9828;DHT22;4953;48.952;9.442;2022-12-17T13:44:22;-0.20;99.90
9828;DHT22;4953;48.952;9.442;2022-12-17T13:46:51;-0.30;99.90
9828;DHT22;4953;48.952;9.442;2022-12-17T13:49:19;-0.30;99.90
9828;DHT22;4953;48.952;9.442;2022-12-17T13:51:59;-0.30;99.90
9828;DHT22;4953;48.952;9.442;2022-12-17T13:54:26;-0.20;99.90
9828;DHT22;4953;48.952;9.442;2022-12-17T13:56:53;-0.20;99.90
9828;DHT22;4953;48.952;9.442;2022-12-17T13:59:22;-0.30;99.90
9828;DHT22;4953;48.952;9.442;2022-12-17T14:01:51;-0.30;99.90
9828;DHT22;4953;48.952;9.442;2022-12-17T14:04:23;-0.40;99.90
9828;DHT22;4953;48.952;9.442;2022-12-17T14:06:54;-0.50;99.90
9828;DHT22;4953;48.952;9.442;2022-12-17T14:09:25;-0.50;99.90
9828;DHT22;4953;48.952;9.442;2022-12-17T14:11:54;-0.50;99.90
9828;DHT22;4953;48.952;9.442;2022-12-17T14:14:39;-0.40;99.90
9828;DHT22;4953;48.952;9.442;2022-12-17T14:17:16;-0.40;99.90
9828;DHT22;4953;48.952;9.442;2022-12-17T14:19:43;-0.40;99.90
9828;DHT22;4953;48.952;9.442;2022-12-17T14:22:16;-0.40;99.90
9828;DHT22;4953;48.952;9.442;2022-12-17T14:24:44;-0.30;99.90
9828;DHT22;4953;48.952;9.442;2022-12-17T14:27:21;-0.30;99.90
9828;DHT22;4953;48.952;9.442;2022-12-17T14:29:48;-0.30;99.90
9828;DHT22;4953;48.952;9.442;2022-12-17T14:32:22;-0.30;99.90
9828;DHT22;4953;48.952;9.442;2022-12-17T14:34:49;-0.30;99.90
9828;DHT22;4953;48.952;9.442;2022-12-17T14:37:22;-0.30;99.90
9828;DHT22;4953;48.952;9.442;2022-12-17T14:39:53;-0.40;99.90
9828;DHT22;4953;48.952;9.442;2022-12-17T14:42:21;-0.40;99.90
9828;DHT22;4953;48.952;9.442;2022-12-17T14:44:55;-0.40;99.90
9828;DHT22;4953;48.952;9.442;2022-12-17T14:47:24;-0.40;99.90
9828;DHT22;4953;48.952;9.442;2022-12-17T14:49:54;-0.50;99.90
9828;DHT22;4953;48.952;9.442;2022-12-17T14:52:29;-0.70;99.90
9828;DHT22;4953;48.952;9.442;2022-12-17T14:54:58;-0.80;99.90
9828;DHT22;4953;48.952;9.442;2022-12-17T14:57:25;-0.90;99.90
9828;DHT22;4953;48.952;9.442;2022-12-17T14:59:52;-0.90;99.90
9828;DHT22;4953;48.952;9.442;2022-12-17T15:02:22;-0.90;99.90
9828;DHT22;4953;48.952;9.442;2022-12-17T15:04:51;-0.80;99.90
9828;DHT22;4953;48.952;9.442;2022-12-17T15:07:26;-0.80;99.90
9828;DHT22;4953;48.952;9.442;2022-12-17T15:09:54;-0.80;99.90
9828;DHT22;4953;48.952;9.442;2022-12-17T15:12:23;-0.80;99.90
9828;DHT22;4953;48.952;9.442;2022-12-17T15:14:50;-0.90;99.90
9828;DHT22;4953;48.952;9.442;2022-12-17T15:17:16;-1.00;99.90
9828;DHT22;4953;48.952;9.442;2022-12-17T15:19:43;-1.00;99.90
9828;DHT22;4953;48.952;9.442;2022-12-17T15:22:14;-1.10;99.90
9828;DHT22;4953;48.952;9.442;2022-12-17T15:24:43;-1.20;99.90
9828;DHT22;4953;48.952;9.442;2022-12-17T15:27:12;-1.20;99.90
9828;DHT22;4953;48.952;9.442;2022-12-17T15:29:39;-1.20;99.90
9828;DHT22;4953;48.952;9.442;2022-12-17T15:32:06;-1.20;99.90
9828;DHT22;4953;48.952;9.442;2022-12-17T15:34:33;-1.30;99.90
9828;DHT22;4953;48.952;9.442;2022-12-17T15:37:00;-1.30;99.90
9828;DHT22;4953;48.952;9.442;2022-12-17T15:39:27;-1.30;99.90
9828;DHT22;4953;48.952;9.442;2022-12-17T15:41:55;-1.40;99.90
9828;DHT22;4953;48.952;9.442;2022-12-17T15:44:39;-1.40;99.90
9828;DHT22;4953;48.952;9.442;2022-12-17T15:47:06;-1.50;99.90
9828;DHT22;4953;48.952;9.442;2022-12-17T15:49:33;-1.50;99.90
9828;DHT22;4953;48.952;9.442;2022-12-17T15:51:59;-1.60;99.90
9828;DHT22;4953;48.952;9.442;2022-12-17T15:54:26;-1.60;99.90
9828;DHT22;4953;48.952;9.442;2022-12-17T15:56:55;-1.60;99.90
9828;DHT22;4953;48.952;9.442;2022-12-17T15:59:22;-1.70;99.90
9828;DHT22;4953;48.952;9.442;2022-12-17T16:01:49;-1.70;99.90
9828;DHT22;4953;48.952;9.442;2022-12-17T16:04:16;-1.80;99.90
9828;DHT22;4953;48.952;9.442;2022-12-17T16:06:43;-1.80;99.90
9828;DHT22;4953;48.952;9.442;2022-12-17T16:09:09;-1.80;99.90
9828;DHT22;4953;48.952;9.442;2022-12-17T16:11:36;-1.80;99.90
9828;DHT22;4953;48.952;9.442;2022-12-17T16:14:04;-1.80;99.90
9828;DHT22;4953;48.952;9.442;2022-12-17T16:16:31;-1.80;99.90
9828;DHT22;4953;48.952;9.442;2022-12-17T16:18:58;-1.80;99.90
9828;DHT22;4953;48.952;9.442;2022-12-17T16:21:27;-1.90;99.90
9828;DHT22;4953;48.952;9.442;2022-12-17T16:23:54;-1.90;99.90
9828;DHT22;4953;48.952;9.442;2022-12-17T16:26:20;-1.90;99.90
9828;DHT22;4953;48.952;9.442;2022-12-17T16:28:47;-1.90;99.90
9828;DHT22;4953;48.952;9.442;2022-12-17T16:31:15;-1.90;99.90
9828;DHT22;4953;48.952;9.442;2022-12-17T16:33:43;-2.00;99.90
9828;DHT22;4953;48.952;9.442;2022-12-17T16:36:13;-2.10;99.90
9828;DHT22;4953;48.952;9.442;2022-12-17T16:38:45;-2.10;99.90
9828;DHT22;4953;48.952;9.442;2022-12-17T16:41:13;-2.20;99.90
9828;DHT22;4953;48.952;9.442;2022-12-17T16:43:40;-2.20;99.90
9828;DHT22;4953;48.952;9.442;2022-12-17T16:46:24;-2.30;99.90
9828;DHT22;4953;48.952;9.442;2022-12-17T16:48:52;-2.30;99.90
9828;DHT22;4953;48.952;9.442;2022-12-17T16:51:20;-2.30;99.90
9828;DHT22;4953;48.952;9.442;2022-12-17T16:53:48;-2.40;99.90
9828;DHT22;4953;48.952;9.442;2022-12-17T16:56:16;-2.40;99.90
9828;DHT22;4953;48.952;9.442;2022-12-17T16:58:43;-2.50;99.90
9828;DHT22;4953;48.952;9.442;2022-12-17T17:01:10;-2.50;99.90
9828;DHT22;4953;48.952;9.442;2022-12-17T17:03:41;-2.50;99.90
9828;DHT22;4953;48.952;9.442;2022-12-17T17:06:09;-2.50;99.90
9828;DHT22;4953;48.952;9.442;2022-12-17T17:08:36;-2.50;99.90
9828;DHT22;4953;48.952;9.442;2022-12-17T17:11:08;-2.50;99.90
9828;DHT22;4953;48.952;9.442;2022-12-17T17:13:35;-2.60;99.90
9828;DHT22;4953;48.952;9.442;2022-12-17T17:16:03;-2.60;99.90
9828;DHT22;4953;48.952;9.442;2022-12-17T17:18:30;-2.70;99.90
9828;DHT22;4953;48.952;9.442;2022-12-17T17:21:13;-2.70;99.90
9828;DHT22;4953;48.952;9.442;2022-12-17T17:23:41;-2.80;99.90
9828;DHT22;4953;48.952;9.442;2022-12-17T17:26:08;-2.80;99.90
9828;DHT22;4953;48.952;9.442;2022-12-17T17:28:35;-2.90;99.90
9828;DHT22;4953;48.952;9.442;2022-12-17T17:31:03;-2.90;99.90
9828;DHT22;4953;48.952;9.442;2022-12-17T17:33:31;-3.00;99.90
9828;DHT22;4953;48.952;9.442;2022-12-17T17:36:02;-3.00;99.90
9828;DHT22;4953;48.952;9.442;2022-12-17T17:38:31;-3.10;99.90
9828;DHT22;4953;48.952;9.442;2022-12-17T17:40:59;-3.10;99.90
9828;DHT22;4953;48.952;9.442;2022-12-17T17:43:26;-3.10;99.90
9828;DHT22;4953;48.952;9.442;2022-12-17T17:45:53;-3.20;99.90
9828;DHT22;4953;48.952;9.442;2022-12-17T17:48:21;-3.20;99.90
9828;DHT22;4953;48.952;9.442;2022-12-17T17:50:56;-3.30;99.90
9828;DHT22;4953;48.952;9.442;2022-12-17T17:53:24;-3.30;99.90
9828;DHT22;4953;48.952;9.442;2022-12-17T17:55:52;-3.30;99.90
9828;DHT22;4953;48.952;9.442;2022-12-17T17:58:19;-3.30;99.90
9828;DHT22;4953;48.952;9.442;2022-12-17T18:00:46;-3.30;99.90
9828;DHT22;4953;48.952;9.442;2022-12-17T18:03:13;-3.30;99.90
9828;DHT22;4953;48.952;9.442;2022-12-17T18:05:40;-3.40;99.90
9828;DHT22;4953;48.952;9.442;2022-12-17T18:08:08;-3.40;99.90
9828;DHT22;4953;48.952;9.442;2022-12-17T18:10:35;-3.40;99.90
9828;DHT22;4953;48.952;9.442;2022-12-17T18:13:03;-3.50;99.90
9828;DHT22;4953;48.952;9.442;2022-12-17T18:15:47;-3.50;99.90
9828;DHT22;4953;48.952;9.442;2022-12-17T18:18:14;-3.50;99.90
9828;DHT22;4953;48.952;9.442;2022-12-17T18:20:41;-3.60;99.90
9828;DHT22;4953;48.952;9.442;2022-12-17T18:23:08;-3.70;99.90
9828;DHT22;4953;48.952;9.442;2022-12-17T18:25:35;-3.70;99.90
9828;DHT22;4953;48.952;9.442;2022-12-17T18:28:03;-3.70;99.90
9828;DHT22;4953;48.952;9.442;2022-12-17T18:30:32;-3.80;99.90
9828;DHT22;4953;48.952;9.442;2022-12-17T18:33:02;-3.80;99.90
9828;DHT22;4953;48.952;9.442;2022-12-17T18:35:29;-3.80;99.90
9828;DHT22;4953;48.952;9.442;2022-12-17T18:37:56;-3.80;99.90
9828;DHT22;4953;48.952;9.442;2022-12-17T18:40:23;-3.90;99.90
9828;DHT22;4953;48.952;9.442;2022-12-17T18:42:50;-3.80;99.90
9828;DHT22;4953;48.952;9.442;2022-12-17T18:45:35;-3.90;99.90
9828;DHT22;4953;48.952;9.442;2022-12-17T18:48:03;-3.90;99.90
9828;DHT22;4953;48.952;9.442;2022-12-17T18:50:29;-3.90;99.90
9828;DHT22;4953;48.952;9.442;2022-12-17T18:52:56;-3.90;99.90
9828;DHT22;4953;48.952;9.442;2022-12-17T18:55:23;-3.90;99.90
9828;DHT22;4953;48.952;9.442;2022-12-17T18:57:50;-3.90;99.90
9828;DHT22;4953;48.952;9.442;2022-12-17T19:00:17;-3.90;99.90
9828;DHT22;4953;48.952;9.442;2022-12-17T19:02:45;-4.00;99.90
9828;DHT22;4953;48.952;9.442;2022-12-17T19:05:12;-4.00;99.90
9828;DHT22;4953;48.952;9.442;2022-12-17T19:07:38;-4.10;99.90
9828;DHT22;4953;48.952;9.442;2022-12-17T19:10:06;-4.10;99.90
9828;DHT22;4953;48.952;9.442;2022-12-17T19:12:33;-4.20;99.90
9828;DHT22;4953;48.952;9.442;2022-12-17T19:15:00;-4.20;99.90
9828;DHT22;4953;48.952;9.442;2022-12-17T19:17:27;-4.30;99.90
9828;DHT22;4953;48.952;9.442;2022-12-17T19:19:55;-4.30;99.90
9828;DHT22;4953;48.952;9.442;2022-12-17T19:22:21;-4.30;99.90
9828;DHT22;4953;48.952;9.442;2022-12-17T19:24:48;-4.30;99.90
9828;DHT22;4953;48.952;9.442;2022-12-17T19:27:15;-4.40;99.90
9828;DHT22;4953;48.952;9.442;2022-12-17T19:29:42;-4.40;99.90
9828;DHT22;4953;48.952;9.442;2022-12-17T19:32:09;-4.50;99.90
9828;DHT22;4953;48.952;9.442;2022-12-17T19:34:35;-4.50;99.90
9828;DHT22;4953;48.952;9.442;2022-12-17T19:37:04;-4.60;99.90
9828;DHT22;4953;48.952;9.442;2022-12-17T19:39:30;-4.60;99.90
9828;DHT22;4953;48.952;9.442;2022-12-17T19:41:57;-4.60;99.90
9828;DHT22;4953;48.952;9.442;2022-12-17T19:44:24;-4.60;99.90
9828;DHT22;4953;48.952;9.442;2022-12-17T19:46:51;-4.60;99.90
9828;DHT22;4953;48.952;9.442;2022-12-17T19:49:18;-4.60;99.90
9828;DHT22;4953;48.952;9.442;2022-12-17T19:51:45;-4.60;99.90
9828;DHT22;4953;48.952;9.442;2022-12-17T19:54:13;-4.60;99.90
9828;DHT22;4953;48.952;9.442;2022-12-17T19:56:40;-4.70;99.90
9828;DHT22;4953;48.952;9.442;2022-12-17T19:59:10;-4.70;99.90
9828;DHT22;4953;48.952;9.442;2022-12-17T20:01:39;-4.70;99.90
9828;DHT22;4953;48.952;9.442;2022-12-17T20:04:06;-4.70;99.90
9828;DHT22;4953;48.952;9.442;2022-12-17T20:06:34;-4.70;99.90
9828;DHT22;4953;48.952;9.442;2022-12-17T20:09:02;-4.70;99.90
9828;DHT22;4953;48.952;9.442;2022-12-17T20:11:31;-4.70;99.90
9828;DHT22;4953;48.952;9.442;2022-12-17T20:14:03;-4.80;99.90
9828;DHT22;4953;48.952;9.442;2022-12-17T20:16:32;-4.80;99.90
9828;DHT22;4953;48.952;9.442;2022-12-17T20:19:00;-4.90;99.90
9828;DHT22;4953;48.952;9.442;2022-12-17T20:21:27;-4.90;99.90
9828;DHT22;4953;48.952;9.442;2022-12-17T20:23:54;-4.90;99.90
9828;DHT22;4953;48.952;9.442;2022-12-17T20:26:21;-4.90;99.90
9828;DHT22;4953;48.952;9.442;2022-12-17T20:28:50;-4.90;99.90
9828;DHT22;4953;48.952;9.442;2022-12-17T20:31:17;-4.90;99.90
9828;DHT22;4953;48.952;9.442;2022-12-17T20:33:44;-4.90;99.90
9828;DHT22;4953;48.952;9.442;2022-12-17T20:36:12;-5.00;99.90
9828;DHT22;4953;48.952;9.442;2022-12-17T20:38:40;-5.00;99.90
9828;DHT22;4953;48.952;9.442;2022-12-17T20:41:08;-5.00;99.90
9828;DHT22;4953;48.952;9.442;2022-12-17T20:43:36;-5.00;99.90
9828;DHT22;4953;48.952;9.442;2022-12-17T20:46:04;-5.00;99.90
9828;DHT22;4953;48.952;9.442;2022-12-17T20:48:31;-5.00;99.90
9828;DHT22;4953;48.952;9.442;2022-12-17T20:51:01;-5.00;99.90
9828;DHT22;4953;48.952;9.442;2022-12-17T20:53:29;-5.00;99.90
9828;DHT22;4953;48.952;9.442;2022-12-17T20:56:00;-5.00;99.90
9828;DHT22;4953;48.952;9.442;2022-12-17T20:58:27;-5.00;99.90
9828;DHT22;4953;48.952;9.442;2022-12-17T21:01:01;-5.00;99.90
9828;DHT22;4953;48.952;9.442;2022-12-17T21:03:29;-5.10;99.90
9828;DHT22;4953;48.952;9.442;2022-12-17T21:06:03;-5.10;99.90
9828;DHT22;4953;48.952;9.442;2022-12-17T21:08:31;-5.10;99.90
9828;DHT22;4953;48.952;9.442;2022-12-17T21:10:58;-5.20;99.90
9828;DHT22;4953;48.952;9.442;2022-12-17T21:13:24;-5.30;99.90
9828;DHT22;4953;48.952;9.442;2022-12-17T21:15:58;-5.30;99.90
9828;DHT22;4953;48.952;9.442;2022-12-17T21:18:26;-5.30;99.90
9828;DHT22;4953;48.952;9.442;2022-12-17T21:20:56;-5.40;99.90
9828;DHT22;4953;48.952;9.442;2022-12-17T21:23:23;-5.40;99.90
9828;DHT22;4953;48.952;9.442;2022-12-17T21:25:58;-5.40;99.90
9828;DHT22;4953;48.952;9.442;2022-12-17T21:28:26;-5.40;99.90
9828;DHT22;4953;48.952;9.442;2022-12-17T21:30:53;-5.40;99.90
9828;DHT22;4953;48.952;9.442;2022-12-17T21:33:19;-5.40;99.90
9828;DHT22;4953;48.952;9.442;2022-12-17T21:35:46;-5.50;99.90
9828;DHT22;4953;48.952;9.442;2022-12-17T21:38:15;-5.50;99.90
9828;DHT22;4953;48.952;9.442;2022-12-17T21:40:42;-5.60;99.90
9828;DHT22;4953;48.952;9.442;2022-12-17T21:43:09;-5.50;99.90
9828;DHT22;4953;48.952;9.442;2022-12-17T21:45:36;-5.60;99.90
9828;DHT22;4953;48.952;9.442;2022-12-17T21:48:04;-5.50;99.90
9828;DHT22;4953;48.952;9.442;2022-12-17T21:50:31;-5.60;99.90
9828;DHT22;4953;48.952;9.442;2022-12-17T21:53:01;-5.70;99.90
9828;DHT22;4953;48.952;9.442;2022-12-17T21:55:29;-5.70;99.90
9828;DHT22;4953;48.952;9.442;2022-12-17T21:57:58;-5.80;99.90
9828;DHT22;4953;48.952;9.442;2022-12-17T22:00:24;-5.80;99.90
9828;DHT22;4953;48.952;9.442;2022-12-17T22:02:51;-5.80;99.90
9828;DHT22;4953;48.952;9.442;2022-12-17T22:05:18;-5.80;99.90